sensor_id;sensor_type;location;lat;lon;timestamp;pressure;altitude;pressure_sealevel;temperature;humidity
6034;BME280;3045;43.226;27.858;2023-04-06T00:00:47;147876.44;;;7.28;100.00
6034;BME280;3045;43.226;27.858;2023-04-06T00:03:15;147843.69;;;7.15;100.00
6034;BME280;3045;43.226;27.858;2023-04-06T00:05:43;147829.78;;;7.09;100.00
6034;BME280;3045;43.226;27.858;2023-04-06T00:08:11;147792.00;;;6.94;100.00
6034;BME280;3045;43.226;27.858;2023-04-06T00:10:38;147841.16;;;7.14;100.00
6034;BME280;3045;43.226;27.858;2023-04-06T00:13:06;147822.25;;;7.06;100.00
6034;BME280;3045;43.226;27.858;2023-04-06T00:15:33;147829.78;;;7.09;100.00
6034;BME280;3045;43.226;27.858;2023-04-06T00:18:00;147844.94;;;7.15;100.00
6034;BME280;3045;43.226;27.858;2023-04-06T00:20:27;147798.28;;;6.97;100.00
6034;BME280;3045;43.226;27.858;2023-04-06T00:22:56;147838.66;;;7.13;100.00
6034;BME280;3045;43.226;27.858;2023-04-06T00:25:23;147795.81;;;6.96;100.00
6034;BME280;3045;43.226;27.858;2023-04-06T00:27:50;147838.66;;;7.13;100.00
6034;BME280;3045;43.226;27.858;2023-04-06T00:30:17;147792.00;;;6.94;100.00
6034;BME280;3045;43.226;27.858;2023-04-06T00:32:44;147808.38;;;7.01;100.00
6034;BME280;3045;43.226;27.858;2023-04-06T00:35:12;147803.34;;;6.99;100.00
6034;BME280;3045;43.226;27.858;2023-04-06T00:37:40;147820.97;;;7.06;100.00
6034;BME280;3045;43.226;27.858;2023-04-06T00:40:10;147808.38;;;7.01;100.00
6034;BME280;3045;43.226;27.858;2023-04-06T00:42:37;147794.53;;;6.95;100.00
6034;BME280;3045;43.226;27.858;2023-04-06T00:45:07;147790.75;;;6.94;100.00
6034;BME280;3045;43.226;27.858;2023-04-06T00:47:34;147807.09;;;7.00;100.00
6034;BME280;3045;43.226;27.858;2023-04-06T00:50:02;147798.28;;;6.97;100.00
6034;BME280;3045;43.226;27.858;2023-04-06T00:52:29;147751.69;;;6.78;100.00
6034;BME280;3045;43.226;27.858;2023-04-06T00:54:56;147780.66;;;6.89;100.00
6034;BME280;3045;43.226;27.858;2023-04-06T00:57:25;147765.50;;;6.83;100.00
6034;BME280;3045;43.226;27.858;2023-04-06T00:59:53;147737.81;;;6.72;100.00
6034;BME280;3045;43.226;27.858;2023-04-06T01:02:20;147747.91;;;6.76;100.00
6034;BME280;3045;43.226;27.858;2023-04-06T01:04:47;147739.09;;;6.73;100.00
6034;BME280;3045;43.226;27.858;2023-04-06T01:07:14;147684.91;;;6.51;100.00
6034;BME280;3045;43.226;27.858;2023-04-06T01:09:41;147741.63;;;6.74;100.00
6034;BME280;3045;43.226;27.858;2023-04-06T01:12:09;147765.50;;;6.83;100.00
6034;BME280;3045;43.226;27.858;2023-04-06T01:14:37;147766.78;;;6.84;100.00
6034;BME280;3045;43.226;27.858;2023-04-06T01:17:04;147717.66;;;6.64;100.00
6034;BME280;3045;43.226;27.858;2023-04-06T01:19:31;147765.50;;;6.83;100.00
6034;BME280;3045;43.226;27.858;2023-04-06T01:21:59;147763.03;;;6.82;100.00
6034;BME280;3045;43.226;27.858;2023-04-06T01:24:27;147763.03;;;6.82;100.00
6034;BME280;3045;43.226;27.858;2023-04-06T01:26:54;147736.56;;;6.72;100.00
6034;BME280;3045;43.226;27.858;2023-04-06T01:29:22;147759.25;;;6.81;100.00
6034;BME280;3045;43.226;27.858;2023-04-06T01:31:49;147770.59;;;6.85;100.00
6034;BME280;3045;43.226;27.858;2023-04-06T01:34:16;147771.84;;;6.86;100.00
6034;BME280;3045;43.226;27.858;2023-04-06T01:36:43;147771.84;;;6.86;100.00
6034;BME280;3045;43.226;27.858;2023-04-06T01:39:12;147752.97;;;6.78;100.00
6034;BME280;3045;43.226;27.858;2023-04-06T01:41:40;147754.16;;;6.79;100.00
6034;BME280;3045;43.226;27.858;2023-04-06T01:44:07;147737.81;;;6.72;100.00
6034;BME280;3045;43.226;27.858;2023-04-06T01:46:34;147729.00;;;6.69;100.00
6034;BME280;3045;43.226;27.858;2023-04-06T01:49:01;147722.66;;;6.66;100.00
6034;BME280;3045;43.226;27.858;2023-04-06T01:51:29;147711.38;;;6.62;100.00
6034;BME280;3045;43.226;27.858;2023-04-06T01:53:56;147682.38;;;6.50;100.00
6034;BME280;3045;43.226;27.858;2023-04-06T01:56:24;147689.97;;;6.53;100.00
6034;BME280;3045;43.226;27.858;2023-04-06T01:58:53;147684.91;;;6.51;100.00
6034;BME280;3045;43.226;27.858;2023-04-06T02:01:20;147684.91;;;6.51;100.00
6034;BME280;3045;43.226;27.858;2023-04-06T02:03:48;147621.91;;;6.26;100.00
6034;BME280;3045;43.226;27.858;2023-04-06T02:06:15;147594.22;;;6.15;100.00
6034;BME280;3045;43.226;27.858;2023-04-06T02:08:42;147647.13;;;6.36;100.00
6034;BME280;3045;43.226;27.858;2023-04-06T02:11:09;147597.97;;;6.16;100.00
6034;BME280;3045;43.226;27.858;2023-04-06T02:13:36;147596.72;;;6.16;100.00
6034;BME280;3045;43.226;27.858;2023-04-06T02:16:05;147664.75;;;6.43;100.00
6034;BME280;3045;43.226;27.858;2023-04-06T02:18:32;147640.81;;;6.33;100.00
6034;BME280;3045;43.226;27.858;2023-04-06T02:20:59;147630.72;;;6.29;100.00
6034;BME280;3045;43.226;27.858;2023-04-06T02:23:26;147639.53;;;6.33;100.00
6034;BME280;3045;43.226;27.858;2023-04-06T02:25:54;147637.06;;;6.32;100.00
6034;BME280;3045;43.226;27.858;2023-04-06T02:28:21;147652.13;;;6.38;100.00
6034;BME280;3045;43.226;27.858;2023-04-06T02:30:48;147606.78;;;6.20;100.00
6034;BME280;3045;43.226;27.858;2023-04-06T02:33:16;147672.28;;;6.46;100.00
6034;BME280;3045;43.226;27.858;2023-04-06T02:35:44;147686.16;;;6.52;100.00
6034;BME280;3045;43.226;27.858;2023-04-06T02:38:11;147702.53;;;6.58;100.00
6034;BME280;3045;43.226;27.858;2023-04-06T02:40:38;147694.97;;;6.55;100.00
6034;BME280;3045;43.226;27.858;2023-04-06T02:43:06;147694.97;;;6.55;100.00
6034;BME280;3045;43.226;27.858;2023-04-06T02:45:33;147692.44;;;6.54;100.00
6034;BME280;3045;43.226;27.858;2023-04-06T02:48:00;147674.81;;;6.47;100.00
6034;BME280;3045;43.226;27.858;2023-04-06T02:50:31;147671.03;;;6.46;100.00
6034;BME280;3045;43.226;27.858;2023-04-06T02:52:58;147689.97;;;6.53;100.00
6034;BME280;3045;43.226;27.858;2023-04-06T02:55:25;147694.97;;;6.55;100.00
6034;BME280;3045;43.226;27.858;2023-04-06T02:57:52;147708.84;;;6.61;100.00
6034;BME280;3045;43.226;27.858;2023-04-06T03:00:19;147686.16;;;6.52;100.00
6034;BME280;3045;43.226;27.858;2023-04-06T03:02:47;147692.44;;;6.54;100.00
6034;BME280;3045;43.226;27.858;2023-04-06T03:05:14;147650.88;;;6.37;100.00
6034;BME280;3045;43.226;27.858;2023-04-06T03:07:44;147606.78;;;6.20;100.00
6034;BME280;3045;43.226;27.858;2023-04-06T03:10:11;147684.91;;;6.51;100.00
6034;BME280;3045;43.226;27.858;2023-04-06T03:12:38;147682.38;;;6.50;100.00
6034;BME280;3045;43.226;27.858;2023-04-06T03:15:08;147658.47;;;6.40;100.00
6034;BME280;3045;43.226;27.858;2023-04-06T03:17:36;147649.59;;;6.37;100.00
6034;BME280;3045;43.226;27.858;2023-04-06T03:20:03;147684.91;;;6.51;100.00
6034;BME280;3045;43.226;27.858;2023-04-06T03:22:30;147648.41;;;6.36;100.00
6034;BME280;3045;43.226;27.858;2023-04-06T03:24:59;147677.34;;;6.48;100.00
6034;BME280;3045;43.226;27.858;2023-04-06T03:27:26;147590.44;;;6.13;100.00
6034;BME280;3045;43.226;27.858;2023-04-06T03:29:53;147629.47;;;6.29;100.00
6034;BME280;3045;43.226;27.858;2023-04-06T03:32:20;147691.19;;;6.54;100.00
6034;BME280;3045;43.226;27.858;2023-04-06T03:34:47;147653.41;;;6.38;100.00
6034;BME280;3045;43.226;27.858;2023-04-06T03:37:15;147657.19;;;6.40;100.00
6034;BME280;3045;43.226;27.858;2023-04-06T03:39:42;147624.44;;;6.27;100.00
6034;BME280;3045;43.226;27.858;2023-04-06T03:42:10;147662.22;;;6.42;100.00
6034;BME280;3045;43.226;27.858;2023-04-06T03:44:37;147649.59;;;6.37;100.00
6034;BME280;3045;43.226;27.858;2023-04-06T03:47:04;147669.75;;;6.45;100.00
6034;BME280;3045;43.226;27.858;2023-04-06T03:49:32;147638.28;;;6.32;100.00
6034;BME280;3045;43.226;27.858;2023-04-06T03:52:00;147673.56;;;6.47;100.00
6034;BME280;3045;43.226;27.858;2023-04-06T03:54:28;147643.34;;;6.34;100.00
6034;BME280;3045;43.226;27.858;2023-04-06T03:56:55;147679.88;;;6.49;100.00
6034;BME280;3045;43.226;27.858;2023-04-06T03:59:24;147667.28;;;6.44;100.00
6034;BME280;3045;43.226;27.858;2023-04-06T04:01:51;147637.06;;;6.32;100.00
6034;BME280;3045;43.226;27.858;2023-04-06T04:04:18;147634.53;;;6.31;100.00
6034;BME280;3045;43.226;27.858;2023-04-06T04:06:46;147681.09;;;6.50;100.00
6034;BME280;3045;43.226;27.858;2023-04-06T04:09:13;147674.81;;;6.47;100.00
6034;BME280;3045;43.226;27.858;2023-04-06T04:11:40;147624.44;;;6.27;100.00
6034;BME280;3045;43.226;27.858;2023-04-06T04:14:07;147643.34;;;6.34;100.00
6034;BME280;3045;43.226;27.858;2023-04-06T04:16:36;147634.53;;;6.31;100.00
6034;BME280;3045;43.226;27.858;2023-04-06T04:19:04;147664.75;;;6.43;100.00
6034;BME280;3045;43.226;27.858;2023-04-06T04:21:31;147655.94;;;6.39;100.00
6034;BME280;3045;43.226;27.858;2023-04-06T04:23:59;147653.41;;;6.38;100.00
6034;BME280;3045;43.226;27.858;2023-04-06T04:26:26;147653.41;;;6.38;100.00
6034;BME280;3045;43.226;27.858;2023-04-06T04:28:53;147638.28;;;6.32;100.00
6034;BME280;3045;43.226;27.858;2023-04-06T04:31:20;147642.06;;;6.34;100.00
6034;BME280;3045;43.226;27.858;2023-04-06T04:33:49;147632.00;;;6.30;100.00
6034;BME280;3045;43.226;27.858;2023-04-06T04:36:16;147604.31;;;6.19;100.00
6034;BME280;3045;43.226;27.858;2023-04-06T04:38:43;147649.59;;;6.37;100.00
6034;BME280;3045;43.226;27.858;2023-04-06T04:41:11;147639.53;;;6.33;100.00
6034;BME280;3045;43.226;27.858;2023-04-06T04:43:38;147637.06;;;6.32;100.00
6034;BME280;3045;43.226;27.858;2023-04-06T04:46:05;147644.59;;;6.35;100.00
6034;BME280;3045;43.226;27.858;2023-04-06T04:48:32;147626.97;;;6.28;100.00
6034;BME280;3045;43.226;27.858;2023-04-06T04:51:01;147615.63;;;6.23;100.00
6034;BME280;3045;43.226;27.858;2023-04-06T04:53:28;147640.81;;;6.33;100.00
6034;BME280;3045;43.226;27.858;2023-04-06T04:55:55;147611.84;;;6.22;100.00
6034;BME280;3045;43.226;27.858;2023-04-06T04:58:22;147668.53;;;6.45;100.00
6034;BME280;3045;43.226;27.858;2023-04-06T05:00:50;147671.03;;;6.46;100.00
6034;BME280;3045;43.226;27.858;2023-04-06T05:03:20;147668.53;;;6.45;100.00
6034;BME280;3045;43.226;27.858;2023-04-06T05:05:50;147649.59;;;6.37;100.00
6034;BME280;3045;43.226;27.858;2023-04-06T05:08:19;147682.38;;;6.50;100.00
6034;BME280;3045;43.226;27.858;2023-04-06T05:10:46;147694.97;;;6.55;100.00
6034;BME280;3045;43.226;27.858;2023-04-06T05:13:13;147672.28;;;6.46;100.00
6034;BME280;3045;43.226;27.858;2023-04-06T05:15:41;147693.72;;;6.55;100.00
6034;BME280;3045;43.226;27.858;2023-04-06T05:18:08;147697.50;;;6.56;100.00
6034;BME280;3045;43.226;27.858;2023-04-06T05:20:37;147730.28;;;6.69;100.00
6034;BME280;3045;43.226;27.858;2023-04-06T05:23:05;147722.66;;;6.66;100.00
6034;BME280;3045;43.226;27.858;2023-04-06T05:25:33;147727.75;;;6.68;100.00
6034;BME280;3045;43.226;27.858;2023-04-06T05:28:01;147726.47;;;6.68;100.00
6034;BME280;3045;43.226;27.858;2023-04-06T05:30:28;147723.94;;;6.67;100.00
6034;BME280;3045;43.226;27.858;2023-04-06T05:32:55;147747.91;;;6.76;100.00
6034;BME280;3045;43.226;27.858;2023-04-06T05:35:22;147755.44;;;6.79;100.00
6034;BME280;3045;43.226;27.858;2023-04-06T05:37:49;147773.13;;;6.86;100.00
6034;BME280;3045;43.226;27.858;2023-04-06T05:40:17;147780.66;;;6.89;100.00
6034;BME280;3045;43.226;27.858;2023-04-06T05:42:48;147770.59;;;6.85;100.00
6034;BME280;3045;43.226;27.858;2023-04-06T05:45:17;147770.59;;;6.85;100.00
6034;BME280;3045;43.226;27.858;2023-04-06T05:47:46;147803.34;;;6.99;100.00
6034;BME280;3045;43.226;27.858;2023-04-06T05:50:15;147822.25;;;7.06;100.00
6034;BME280;3045;43.226;27.858;2023-04-06T05:52:42;147812.16;;;7.02;100.00
6034;BME280;3045;43.226;27.858;2023-04-06T05:55:13;147812.16;;;7.02;100.00
6034;BME280;3045;43.226;27.858;2023-04-06T05:57:40;147805.88;;;7.00;100.00
6034;BME280;3045;43.226;27.858;2023-04-06T06:00:10;147822.25;;;7.06;100.00
6034;BME280;3045;43.226;27.858;2023-04-06T06:02:37;147848.75;;;7.17;100.00
6034;BME280;3045;43.226;27.858;2023-04-06T06:05:08;147838.66;;;7.13;100.00
6034;BME280;3045;43.226;27.858;2023-04-06T06:07:35;147818.44;;;7.05;100.00
6034;BME280;3045;43.226;27.858;2023-04-06T06:10:03;147808.38;;;7.01;100.00
6034;BME280;3045;43.226;27.858;2023-04-06T06:12:30;147793.28;;;6.95;100.00
6034;BME280;3045;43.226;27.858;2023-04-06T06:14:57;147742.88;;;6.74;100.00
6034;BME280;3045;43.226;27.858;2023-04-06T06:17:26;147829.78;;;7.09;100.00
6034;BME280;3045;43.226;27.858;2023-04-06T06:19:53;147812.16;;;7.02;100.00
6034;BME280;3045;43.226;27.858;2023-04-06T06:22:20;147846.22;;;7.16;100.00
6034;BME280;3045;43.226;27.858;2023-04-06T06:24:47;147866.38;;;7.24;100.00
6034;BME280;3045;43.226;27.858;2023-04-06T06:27:15;147844.94;;;7.15;100.00
6034;BME280;3045;43.226;27.858;2023-04-06T06:29:42;147901.69;;;7.38;100.00
6034;BME280;3045;43.226;27.858;2023-04-06T06:32:09;147921.84;;;7.46;100.00
6034;BME280;3045;43.226;27.858;2023-04-06T06:34:38;147955.88;;;7.60;100.00
6034;BME280;3045;43.226;27.858;2023-04-06T06:37:05;148011.34;;;7.82;100.00
6034;BME280;3045;43.226;27.858;2023-04-06T06:39:32;148010.09;;;7.81;100.00
6034;BME280;3045;43.226;27.858;2023-04-06T06:42:00;148046.69;;;7.96;100.00
6034;BME280;3045;43.226;27.858;2023-04-06T06:44:29;148083.25;;;8.11;100.00
6034;BME280;3045;43.226;27.858;2023-04-06T06:46:56;148156.47;;;8.40;100.00
6034;BME280;3045;43.226;27.858;2023-04-06T06:49:24;148200.66;;;8.58;100.00
6034;BME280;3045;43.226;27.858;2023-04-06T06:51:53;148205.72;;;8.60;100.00
6034;BME280;3045;43.226;27.858;2023-04-06T06:54:20;148267.56;;;8.85;100.00
6034;BME280;3045;43.226;27.858;2023-04-06T06:56:47;148300.38;;;8.98;100.00
6034;BME280;3045;43.226;27.858;2023-04-06T06:59:16;148414.00;;;9.43;100.00
6034;BME280;3045;43.226;27.858;2023-04-06T07:01:43;148436.72;;;9.52;100.00
6034;BME280;3045;43.226;27.858;2023-04-06T07:04:10;148606.06;;;10.20;100.00
6034;BME280;3045;43.226;27.858;2023-04-06T07:06:40;148650.31;;;10.38;100.00
6034;BME280;3045;43.226;27.858;2023-04-06T07:09:09;148823.50;;;11.07;100.00
6034;BME280;3045;43.226;27.858;2023-04-06T07:11:36;148936.06;;;11.52;100.00
6034;BME280;3045;43.226;27.858;2023-04-06T07:14:06;148845.00;;;11.16;100.00
6034;BME280;3045;43.226;27.858;2023-04-06T07:16:33;148875.38;;;11.28;100.00
6034;BME280;3045;43.226;27.858;2023-04-06T07:19:00;148860.16;;;11.22;100.00
6034;BME280;3045;43.226;27.858;2023-04-06T07:21:28;148960.09;;;11.62;100.00
6034;BME280;3045;43.226;27.858;2023-04-06T07:23:56;148951.25;;;11.58;100.00
6034;BME280;3045;43.226;27.858;2023-04-06T07:26:28;148872.81;;;11.27;100.00
6034;BME280;3045;43.226;27.858;2023-04-06T07:28:55;149017.06;;;11.84;100.00
6034;BME280;3045;43.226;27.858;2023-04-06T07:31:22;148990.50;;;11.74;100.00
6034;BME280;3045;43.226;27.858;2023-04-06T07:33:52;149013.28;;;11.83;100.00
6034;BME280;3045;43.226;27.858;2023-04-06T07:36:22;148993.06;;;11.75;100.00
6034;BME280;3045;43.226;27.858;2023-04-06T07:38:49;148965.16;;;11.64;100.00
6034;BME280;3045;43.226;27.858;2023-04-06T07:41:16;149023.41;;;11.87;100.00
6034;BME280;3045;43.226;27.858;2023-04-06T07:43:45;149008.22;;;11.81;100.00
6034;BME280;3045;43.226;27.858;2023-04-06T07:46:12;149096.81;;;12.16;100.00
6034;BME280;3045;43.226;27.858;2023-04-06T07:48:40;149095.53;;;12.16;100.00
6034;BME280;3045;43.226;27.858;2023-04-06T07:51:07;149170.22;;;12.46;100.00
6034;BME280;3045;43.226;27.858;2023-04-06T07:53:36;149148.69;;;12.37;100.00
6034;BME280;3045;43.226;27.858;2023-04-06T07:56:03;149089.22;;;12.13;100.00
6034;BME280;3045;43.226;27.858;2023-04-06T07:58:30;149158.81;;;12.41;100.00
6034;BME280;3045;43.226;27.858;2023-04-06T08:00:58;149176.53;;;12.48;100.00
6034;BME280;3045;43.226;27.858;2023-04-06T08:03:26;149095.53;;;12.16;100.00
6034;BME280;3045;43.226;27.858;2023-04-06T08:05:53;149139.84;;;12.33;100.00
6034;BME280;3045;43.226;27.858;2023-04-06T08:08:20;149167.69;;;12.45;100.00
6034;BME280;3045;43.226;27.858;2023-04-06T08:10:48;149165.13;;;12.44;100.00
6034;BME280;3045;43.226;27.858;2023-04-06T08:13:15;149210.72;;;12.62;100.00
6034;BME280;3045;43.226;27.858;2023-04-06T08:15:42;149203.16;;;12.59;100.00
6034;BME280;3045;43.226;27.858;2023-04-06T08:18:11;149190.47;;;12.54;100.00
6034;BME280;3045;43.226;27.858;2023-04-06T08:20:39;149180.34;;;12.50;100.00
6034;BME280;3045;43.226;27.858;2023-04-06T08:23:09;149215.81;;;12.64;100.00
6034;BME280;3045;43.226;27.858;2023-04-06T08:25:36;149223.41;;;12.67;100.00
6034;BME280;3045;43.226;27.858;2023-04-06T08:28:04;149215.81;;;12.64;100.00
6034;BME280;3045;43.226;27.858;2023-04-06T08:30:31;149220.84;;;12.66;100.00
6034;BME280;3045;43.226;27.858;2023-04-06T08:32:58;149252.50;;;12.78;100.00
6034;BME280;3045;43.226;27.858;2023-04-06T08:35:27;149284.16;;;12.91;100.00
6034;BME280;3045;43.226;27.858;2023-04-06T08:37:54;149322.19;;;13.06;100.00
6034;BME280;3045;43.226;27.858;2023-04-06T08:40:21;149299.38;;;12.97;100.00
6034;BME280;3045;43.226;27.858;2023-04-06T08:42:51;149343.75;;;13.15;100.00
6034;BME280;3045;43.226;27.858;2023-04-06T08:45:19;149350.06;;;13.17;100.00
6034;BME280;3045;43.226;27.858;2023-04-06T08:47:47;149332.38;;;13.10;100.00
6034;BME280;3045;43.226;27.858;2023-04-06T08:50:18;149227.22;;;12.68;100.00
6034;BME280;3045;43.226;27.858;2023-04-06T08:52:50;149375.44;;;13.27;100.00
6034;BME280;3045;43.226;27.858;2023-04-06T08:55:18;149380.47;;;13.30;100.00
6034;BME280;3045;43.226;27.858;2023-04-06T08:57:45;149353.91;;;13.19;100.00
6034;BME280;3045;43.226;27.858;2023-04-06T09:00:19;149376.72;;;13.28;100.00
6034;BME280;3045;43.226;27.858;2023-04-06T09:02:49;149312.06;;;13.02;100.00
6034;BME280;3045;43.226;27.858;2023-04-06T09:05:16;149332.38;;;13.10;100.00
6034;BME280;3045;43.226;27.858;2023-04-06T09:07:44;149239.84;;;12.73;100.00
6034;BME280;3045;43.226;27.858;2023-04-06T09:10:15;149198.06;;;12.57;100.00
6034;BME280;3045;43.226;27.858;2023-04-06T09:12:43;149132.25;;;12.30;100.00
6034;BME280;3045;43.226;27.858;2023-04-06T09:15:18;149103.13;;;12.19;100.00
6034;BME280;3045;43.226;27.858;2023-04-06T09:17:45;149067.72;;;12.05;100.00
6034;BME280;3045;43.226;27.858;2023-04-06T09:20:12;149055.06;;;12.00;100.00
6034;BME280;3045;43.226;27.858;2023-04-06T09:22:40;149076.56;;;12.08;100.00
6034;BME280;3045;43.226;27.858;2023-04-06T09:25:09;149017.06;;;11.84;100.00
6034;BME280;3045;43.226;27.858;2023-04-06T09:27:39;149023.41;;;11.87;100.00
6034;BME280;3045;43.226;27.858;2023-04-06T09:30:08;149004.44;;;11.79;100.00
6034;BME280;3045;43.226;27.858;2023-04-06T09:32:46;149020.88;;;11.86;100.00
6034;BME280;3045;43.226;27.858;2023-04-06T09:35:13;148998.09;;;11.77;100.00
6034;BME280;3045;43.226;27.858;2023-04-06T09:37:41;149023.41;;;11.87;100.00
6034;BME280;3045;43.226;27.858;2023-04-06T09:40:09;148971.50;;;11.66;100.00
6034;BME280;3045;43.226;27.858;2023-04-06T09:42:41;149029.72;;;11.89;100.00
6034;BME280;3045;43.226;27.858;2023-04-06T09:45:09;149033.53;;;11.91;100.00
6034;BME280;3045;43.226;27.858;2023-04-06T09:47:37;149068.94;;;12.05;100.00
6034;BME280;3045;43.226;27.858;2023-04-06T09:50:07;149058.81;;;12.01;100.00
6034;BME280;3045;43.226;27.858;2023-04-06T09:52:40;149099.34;;;12.17;100.00
6034;BME280;3045;43.226;27.858;2023-04-06T09:55:08;149213.25;;;12.63;100.00
6034;BME280;3045;43.226;27.858;2023-04-06T09:57:45;149139.84;;;12.33;100.00
6034;BME280;3045;43.226;27.858;2023-04-06T10:00:17;149160.09;;;12.42;100.00
6034;BME280;3045;43.226;27.858;2023-04-06T10:02:52;149160.09;;;12.42;100.00
6034;BME280;3045;43.226;27.858;2023-04-06T10:05:29;149137.31;;;12.32;100.00
6034;BME280;3045;43.226;27.858;2023-04-06T10:08:02;149175.25;;;12.48;100.00
6034;BME280;3045;43.226;27.858;2023-04-06T10:10:33;149187.94;;;12.53;100.00
6034;BME280;3045;43.226;27.858;2023-04-06T10:13:02;149223.41;;;12.67;100.00
6034;BME280;3045;43.226;27.858;2023-04-06T10:15:30;149167.69;;;12.45;100.00
6034;BME280;3045;43.226;27.858;2023-04-06T10:17:57;149208.19;;;12.61;100.00
6034;BME280;3045;43.226;27.858;2023-04-06T10:20:30;149198.06;;;12.57;100.00
6034;BME280;3045;43.226;27.858;2023-04-06T10:23:03;149198.06;;;12.57;100.00
6034;BME280;3045;43.226;27.858;2023-04-06T10:25:32;149267.72;;;12.85;100.00
6034;BME280;3045;43.226;27.858;2023-04-06T10:28:02;149309.50;;;13.01;100.00
6034;BME280;3045;43.226;27.858;2023-04-06T10:30:32;149296.84;;;12.96;100.00
6034;BME280;3045;43.226;27.858;2023-04-06T10:33:00;149249.97;;;12.77;100.00
6034;BME280;3045;43.226;27.858;2023-04-06T10:35:36;149187.94;;;12.53;100.00
6034;BME280;3045;43.226;27.858;2023-04-06T10:38:04;149172.75;;;12.47;100.00
6034;BME280;3045;43.226;27.858;2023-04-06T10:40:36;149239.84;;;12.73;100.00
6034;BME280;3045;43.226;27.858;2023-04-06T10:43:09;149203.16;;;12.59;100.00
6034;BME280;3045;43.226;27.858;2023-04-06T10:45:37;149198.06;;;12.57;100.00
6034;BME280;3045;43.226;27.858;2023-04-06T10:48:14;149198.06;;;12.57;100.00
6034;BME280;3045;43.226;27.858;2023-04-06T10:50:44;149253.78;;;12.79;100.00
6034;BME280;3045;43.226;27.858;2023-04-06T10:53:11;149266.44;;;12.84;100.00
6034;BME280;3045;43.226;27.858;2023-04-06T10:55:39;149286.72;;;12.92;100.00
6034;BME280;3045;43.226;27.858;2023-04-06T10:58:08;149304.41;;;12.99;100.00
6034;BME280;3045;43.226;27.858;2023-04-06T11:00:44;149317.09;;;13.04;100.00
6034;BME280;3045;43.226;27.858;2023-04-06T11:03:11;149329.78;;;13.09;100.00
6034;BME280;3045;43.226;27.858;2023-04-06T11:05:43;149289.25;;;12.93;100.00
6034;BME280;3045;43.226;27.858;2023-04-06T11:08:10;149287.97;;;12.93;100.00
6034;BME280;3045;43.226;27.858;2023-04-06T11:10:38;149294.28;;;12.95;100.00
6034;BME280;3045;43.226;27.858;2023-04-06T11:13:05;149309.50;;;13.01;100.00
6034;BME280;3045;43.226;27.858;2023-04-06T11:15:35;149299.38;;;12.97;100.00
6034;BME280;3045;43.226;27.858;2023-04-06T11:18:04;149314.53;;;13.03;100.00
6034;BME280;3045;43.226;27.858;2023-04-06T11:20:31;149305.69;;;13.00;100.00
6034;BME280;3045;43.226;27.858;2023-04-06T11:23:00;149284.16;;;12.91;100.00
6034;BME280;3045;43.226;27.858;2023-04-06T11:25:29;149252.50;;;12.78;100.00
6034;BME280;3045;43.226;27.858;2023-04-06T11:28:00;149305.69;;;13.00;100.00
6034;BME280;3045;43.226;27.858;2023-04-06T11:30:27;149293.03;;;12.95;100.00
6034;BME280;3045;43.226;27.858;2023-04-06T11:33:00;149337.41;;;13.12;100.00
6034;BME280;3045;43.226;27.858;2023-04-06T11:35:31;149312.06;;;13.02;100.00
6034;BME280;3045;43.226;27.858;2023-04-06T11:38:02;149310.78;;;13.02;100.00
6034;BME280;3045;43.226;27.858;2023-04-06T11:40:31;149319.63;;;13.05;100.00
6034;BME280;3045;43.226;27.858;2023-04-06T11:42:58;149314.53;;;13.03;100.00
6034;BME280;3045;43.226;27.858;2023-04-06T11:45:25;149377.94;;;13.28;100.00
6034;BME280;3045;43.226;27.858;2023-04-06T11:47:59;149400.72;;;13.38;100.00
6034;BME280;3045;43.226;27.858;2023-04-06T11:50:31;149400.72;;;13.38;100.00
6034;BME280;3045;43.226;27.858;2023-04-06T11:53:00;149345.00;;;13.15;100.00
6034;BME280;3045;43.226;27.858;2023-04-06T11:55:37;149317.09;;;13.04;100.00
6034;BME280;3045;43.226;27.858;2023-04-06T11:58:04;149400.72;;;13.38;100.00
6034;BME280;3045;43.226;27.858;2023-04-06T12:00:32;149455.22;;;13.59;100.00
6034;BME280;3045;43.226;27.858;2023-04-06T12:03:01;149453.94;;;13.59;100.00
6034;BME280;3045;43.226;27.858;2023-04-06T12:05:28;149424.81;;;13.47;100.00
6034;BME280;3045;43.226;27.858;2023-04-06T12:07:55;149464.09;;;13.63;100.00
6034;BME280;3045;43.226;27.858;2023-04-06T12:10:23;149395.69;;;13.36;100.00
6034;BME280;3045;43.226;27.858;2023-04-06T12:12:50;149380.47;;;13.30;100.00
6034;BME280;3045;43.226;27.858;2023-04-06T12:15:17;149414.69;;;13.43;100.00
6034;BME280;3045;43.226;27.858;2023-04-06T12:17:43;149383.00;;;13.31;100.00
6034;BME280;3045;43.226;27.858;2023-04-06T12:20:12;149369.06;;;13.25;100.00
6034;BME280;3045;43.226;27.858;2023-04-06T12:22:39;149383.00;;;13.31;100.00
6034;BME280;3045;43.226;27.858;2023-04-06T12:25:07;149379.19;;;13.29;100.00
6034;BME280;3045;43.226;27.858;2023-04-06T12:27:34;149413.41;;;13.43;100.00
6034;BME280;3045;43.226;27.858;2023-04-06T12:30:01;149408.38;;;13.41;100.00
6034;BME280;3045;43.226;27.858;2023-04-06T12:32:28;149405.81;;;13.40;100.00
6034;BME280;3045;43.226;27.858;2023-04-06T12:34:55;149400.72;;;13.38;100.00
6034;BME280;3045;43.226;27.858;2023-04-06T12:37:23;149391.88;;;13.34;99.88
6034;BME280;3045;43.226;27.858;2023-04-06T12:39:53;149365.28;;;13.23;100.00
6034;BME280;3045;43.226;27.858;2023-04-06T12:42:20;149385.56;;;13.32;100.00
6034;BME280;3045;43.226;27.858;2023-04-06T12:44:46;149408.38;;;13.41;100.00
6034;BME280;3045;43.226;27.858;2023-04-06T12:47:13;149358.94;;;13.21;100.00
6034;BME280;3045;43.226;27.858;2023-04-06T12:49:41;149352.63;;;13.18;100.00
6034;BME280;3045;43.226;27.858;2023-04-06T12:52:08;149306.97;;;13.00;100.00
6034;BME280;3045;43.226;27.858;2023-04-06T12:54:37;149291.78;;;12.94;100.00
6034;BME280;3045;43.226;27.858;2023-04-06T12:57:07;149291.78;;;12.94;100.00
6034;BME280;3045;43.226;27.858;2023-04-06T12:59:34;149295.56;;;12.96;100.00